Time;durP1;ratioP1;P1;durP2;ratioP2;P2;SDS_P1;SDS_P2;PMS_P1;PMS_P2;Temp;Humidity;BMP_temperature;BMP_pressure;BME280_temperature;BME280_humidity;BME280_pressure;Samples;Min_cycle;Max_cycle;Signal;HPM_P1;HPM_P2
2024/02/20 00:03:10;;;;;;;3.08;1.67;;;;;;;7.97;100.00;99103.75;15288694;19;20015;-82
2024/02/20 00:08:36;;;;;;;2.67;1.50;;;;;;;7.91;100.00;99106.97;15292239;19;20014;-83
2024/02/20 00:14:03;;;;;;;2.75;1.58;;;;;;;7.86;100.00;99095.75;15284229;19;20007;-83
2024/02/20 00:19:29;;;;;;;2.95;1.67;;;;;;;7.81;100.00;99092.63;15289925;19;20015;-82
2024/02/20 00:24:53;;;;;;;3.97;1.80;;;;;;;7.74;100.00;99096.75;15289247;19;20018;-83
2024/02/20 00:30:20;;;;;;;2.03;1.73;;;;;;;7.66;100.00;99095.56;15288481;19;20017;-84
2024/02/20 00:41:10;;;;;;;3.10;1.88;;;;;;;7.72;100.00;99092.38;15353136;19;20007;-84
2024/02/20 00:46:37;;;;;;;3.15;2.20;;;;;;;7.75;100.00;99093.97;15313518;19;20066;-85
2024/02/20 00:52:02;;;;;;;3.90;2.20;;;;;;;7.70;100.00;99085.44;15319358;19;20015;-83
2024/02/20 00:57:27;;;;;;;4.78;2.45;;;;;;;7.68;100.00;99092.75;15322153;19;20014;-83
2024/02/20 01:02:54;;;;;;;2.83;2.35;;;;;;;7.66;100.00;99083.97;15344589;19;20018;-82
2024/02/20 01:08:20;;;;;;;4.63;2.80;;;;;;;7.63;100.00;99082.41;15355148;19;20018;-82
2024/02/20 01:13:46;;;;;;;3.60;2.67;;;;;;;7.56;100.00;99078.53;15320563;19;20386;-83
2024/02/20 01:19:13;;;;;;;3.50;2.50;;;;;;;7.52;100.00;99090.47;15300250;19;20495;-83
2024/02/20 01:30:16;;;;;;;4.78;2.60;;;;;;;7.46;100.00;99093.69;15350607;19;20014;-85
2024/02/20 01:35:50;;;;;;;5.40;3.10;;;;;;;7.42;100.00;99085.00;15288255;19;20469;-84
2024/02/20 01:41:16;;;;;;;5.65;3.05;;;;;;;7.43;100.00;99094.75;15291381;19;20015;-84
2024/02/20 01:46:41;;;;;;;4.70;2.78;;;;;;;7.51;100.00;99103.06;15299370;19;20014;-85
2024/02/20 01:52:12;;;;;;;7.03;3.55;;;;;;;7.57;100.00;99107.06;15297510;19;20078;-83
2024/02/20 01:57:38;;;;;;;5.63;3.40;;;;;;;7.60;100.00;99109.47;15307489;19;20006;-85
2024/02/20 02:03:05;;;;;;;3.03;2.60;;;;;;;7.68;100.00;99109.72;15300007;19;20287;-83
2024/02/20 02:08:32;;;;;;;3.42;2.42;;;;;;;7.67;100.00;99105.31;15049189;19;5000971;-84
2024/02/20 02:13:58;;;;;;;3.58;2.60;;;;;;;7.70;100.00;99113.09;15296645;19;20074;-83
2024/02/20 02:19:23;;;;;;;3.47;2.28;;;;;;;7.65;100.00;99104.59;15300927;19;20098;-82
2024/02/20 02:24:50;;;;;;;4.53;2.28;;;;;;;7.66;100.00;99106.31;15293629;19;20088;-82
2024/02/20 02:30:20;;;;;;;3.08;2.13;;;;;;;7.62;100.00;99106.69;15298597;19;20018;-83
2024/02/20 02:35:51;;;;;;;3.95;2.38;;;;;;;7.50;100.00;99105.84;15290959;19;20010;-82
2024/02/20 02:41:17;;;;;;;2.80;2.10;;;;;;;7.53;100.00;99124.38;15300224;19;20015;-83
2024/02/20 02:46:44;;;;;;;4.20;2.20;;;;;;;7.53;100.00;99124.38;15295700;19;20014;-83
2024/02/20 02:52:09;;;;;;;3.50;2.22;;;;;;;7.55;100.00;99117.88;15292714;19;20021;-82
2024/02/20 02:57:34;;;;;;;3.72;1.90;;;;;;;7.48;100.00;99121.19;15287940;19;20018;-82
2024/02/20 03:03:01;;;;;;;2.10;1.80;;;;;;;7.43;100.00;99112.69;15290572;19;20014;-83
2024/02/20 03:08:26;;;;;;;1.75;1.65;;;;;;;7.37;100.00;99111.34;15283625;19;20026;-81
2024/02/20 03:13:52;;;;;;;2.72;1.60;;;;;;;7.30;100.00;99115.47;15287815;19;20014;-82
2024/02/20 03:19:19;;;;;;;2.08;1.58;;;;;;;7.25;100.00;99118.53;15288624;19;20369;-82
2024/02/20 03:24:45;;;;;;;1.70;1.60;;;;;;;7.25;100.00;99115.84;15289757;19;20018;-81
2024/02/20 03:30:10;;;;;;;1.95;1.80;;;;;;;7.24;100.00;99124.88;15296821;19;20039;-82
2024/02/20 03:35:45;;;;;;;2.92;2.13;;;;;;;7.25;100.00;99124.78;15030786;19;5001187;-81
2024/02/20 03:41:10;;;;;;;2.67;2.20;;;;;;;7.23;100.00;99131.25;15289400;19;20036;-81
2024/02/20 03:46:34;;;;;;;3.15;1.92;;;;;;;7.23;100.00;99137.44;15284624;19;20432;-82
2024/02/20 03:52:01;;;;;;;2.10;2.00;;;;;;;7.19;100.00;99143.16;15283204;19;20018;-81
2024/02/20 03:57:27;;;;;;;1.95;1.80;;;;;;;7.06;100.00;99141.44;15282487;19;20130;-81
2024/02/20 04:02:53;;;;;;;3.05;2.22;;;;;;;6.96;100.00;99143.16;15293455;19;20032;-80
2024/02/20 04:08:20;;;;;;;3.28;2.35;;;;;;;6.81;100.00;99155.06;15289121;19;20028;-80
2024/02/20 04:13:45;;;;;;;2.10;1.90;;;;;;;6.65;100.00;99166.94;15283926;19;20656;-80
2024/02/20 04:19:09;;;;;;;3.78;2.30;;;;;;;6.59;100.00;99178.97;15298621;19;20548;-81
2024/02/20 04:24:36;;;;;;;4.13;2.22;;;;;;;6.61;100.00;99197.63;15308904;19;20032;-81
2024/02/20 04:30:02;;;;;;;2.95;1.77;;;;;;;6.62;100.00;99204.69;15317806;19;20015;-82
2024/02/20 04:35:33;;;;;;;2.10;1.80;;;;;;;6.66;100.00;99213.34;15340823;19;20460;-82
2024/02/20 04:41:02;;;;;;;3.45;1.90;;;;;;;6.68;100.00;99235.50;15299008;19;20037;-83
2024/02/20 04:46:27;;;;;;;2.05;1.55;;;;;;;6.69;100.00;99232.69;15352335;19;20023;-77
2024/02/20 04:51:52;;;;;;;2.00;1.15;;;;;;;6.69;100.00;99246.09;15321960;19;20014;-79
2024/02/20 04:57:20;;;;;;;2.33;1.20;;;;;;;6.70;100.00;99241.59;15323728;19;20032;-78
2024/02/20 05:02:46;;;;;;;2.22;1.20;;;;;;;6.70;100.00;99237.09;15316310;19;20376;-79
2024/02/20 05:08:10;;;;;;;1.75;0.95;;;;;;;6.71;100.00;99233.44;15308690;19;20035;-80
2024/02/20 05:13:37;;;;;;;2.30;1.20;;;;;;;6.71;100.00;99233.44;15311090;19;20078;-80
2024/02/20 05:19:02;;;;;;;2.88;1.42;;;;;;;6.67;100.00;99242.66;15317721;19;20018;-80
2024/02/20 05:24:27;;;;;;;2.10;1.38;;;;;;;6.67;100.00;99257.88;15318287;19;20022;-82
2024/02/20 05:29:54;;;;;;;2.60;1.40;;;;;;;6.66;100.00;99257.03;15307985;19;20074;-82
2024/02/20 05:35:25;;;;;;;2.88;1.55;;;;;;;6.64;100.00;99258.97;15308943;19;20018;-78
2024/02/20 05:40:54;;;;;;;2.35;1.38;;;;;;;6.59;100.00;99261.13;15294200;19;20102;-81
2024/02/20 05:46:22;;;;;;;1.92;0.85;;;;;;;6.57;100.00;99263.06;15298796;19;20029;-80
2024/02/20 05:51:48;;;;;;;2.60;0.90;;;;;;;6.59;100.00;99277.19;15292135;19;20011;-79
2024/02/20 05:57:13;;;;;;;3.05;1.17;;;;;;;6.61;100.00;99273.44;15295859;19;20017;-80
2024/02/20 06:02:45;;;;;;;2.50;0.80;;;;;;;6.60;100.00;99263.69;15303306;19;20022;-79
2024/02/20 06:08:11;;;;;;;1.25;0.70;;;;;;;6.60;100.00;99262.84;15318125;19;20046;-78
2024/02/20 06:13:36;;;;;;;2.05;0.60;;;;;;;6.57;100.00;99281.81;15319175;19;20026;-78
2024/02/20 06:19:03;;;;;;;2.35;0.60;;;;;;;6.56;100.00;99282.78;15305099;19;20025;-78
2024/02/20 06:24:28;;;;;;;1.48;0.75;;;;;;;6.55;100.00;99276.59;15289017;19;20018;-79
2024/02/20 06:29:52;;;;;;;1.77;0.80;;;;;;;6.53;100.00;99291.91;15289330;19;20022;-79
2024/02/20 06:35:26;;;;;;;2.00;0.80;;;;;;;6.48;100.00;99286.88;15293888;19;20010;-79
2024/02/20 06:40:51;;;;;;;1.92;0.70;;;;;;;6.45;100.00;99291.63;15286769;19;20033;-80
2024/02/20 06:46:15;;;;;;;2.00;0.60;;;;;;;6.42;100.00;99303.38;15295417;19;20031;-79
2024/02/20 06:51:44;;;;;;;2.55;0.77;;;;;;;6.38;100.00;99309.09;15294014;19;20102;-79
2024/02/20 06:57:09;;;;;;;1.98;0.70;;;;;;;6.31;100.00;99312.22;15291475;19;20102;-79
2024/02/20 07:02:34;;;;;;;3.25;0.63;;;;;;;6.25;100.00;99327.88;15294478;19;20544;-77
2024/02/20 07:08:01;;;;;;;3.72;0.95;;;;;;;6.27;100.00;99331.28;15294639;19;20010;-79
2024/02/20 07:13:26;;;;;;;1.58;0.63;;;;;;;6.31;100.00;99335.44;15289400;19;20089;-80
2024/02/20 07:18:51;;;;;;;2.15;0.70;;;;;;;6.36;100.00;99352.03;15298374;19;20026;-82
2024/02/20 07:24:18;;;;;;;2.97;0.80;;;;;;;6.39;100.00;99340.25;15293770;19;20035;-80
2024/02/20 07:29:49;;;;;;;3.28;1.02;;;;;;;6.41;100.00;99355.22;15294579;19;20359;-81
2024/02/20 07:35:22;;;;;;;4.03;0.98;;;;;;;6.39;100.00;99357.16;15334007;19;20014;-84
2024/02/20 07:40:50;;;;;;;4.07;1.08;;;;;;;6.22;100.00;99357.53;15285652;19;20055;-81
2024/02/20 07:46:17;;;;;;;5.15;1.10;;;;;;;6.10;100.00;99362.78;15283169;19;20035;-80
2024/02/20 07:51:42;;;;;;;4.43;1.10;;;;;;;6.04;100.00;99383.78;15288243;19;20022;-82
2024/02/20 07:57:09;;;;;;;5.57;1.30;;;;;;;6.06;100.00;99377.34;15282633;19;20537;-81
2024/02/20 08:02:36;;;;;;;5.38;1.20;;;;;;;6.13;100.00;99381.31;15295132;19;20066;-79
2024/02/20 08:08:00;;;;;;;4.72;1.42;;;;;;;6.28;100.00;99399.91;15291930;19;20018;-80
2024/02/20 08:13:28;;;;;;;5.65;1.60;;;;;;;6.34;100.00;99395.94;15287024;19;20019;-80
2024/02/20 08:18:53;;;;;;;9.60;1.60;;;;;;;6.37;100.00;99399.25;15290779;19;20082;-81
2024/02/20 08:24:18;;;;;;;6.43;1.73;;;;;;;6.33;100.00;99395.06;15279370;19;20380;-81
2024/02/20 08:29:45;;;;;;;8.68;1.90;;;;;;;6.34;100.00;99412.00;15288100;19;20011;-81
2024/02/20 08:35:17;;;;;;;8.88;1.83;;;;;;;6.39;100.00;99415.19;15289290;19;20043;-81
2024/02/20 08:40:44;;;;;;;9.93;1.95;;;;;;;6.42;100.00;99415.81;15286008;19;20026;-82
2024/02/20 08:46:19;;;;;;;8.00;1.77;;;;;;;6.40;100.00;99438.31;15293607;19;20090;-82
2024/02/20 08:51:45;;;;;;;7.00;1.70;;;;;;;6.46;100.00;99417.31;15337782;19;20011;-81
2024/02/20 08:57:10;;;;;;;7.03;1.80;;;;;;;6.54;100.00;99419.44;15297669;19;20018;-81
2024/02/20 09:02:38;;;;;;;7.03;1.60;;;;;;;6.60;100.00;99420.81;15302963;19;20030;-83
2024/02/20 09:08:03;;;;;;;8.77;1.50;;;;;;;6.75;100.00;99410.81;15316813;19;20466;-82
2024/02/20 09:13:30;;;;;;;8.00;2.00;;;;;;;6.94;100.00;99400.44;15311767;19;20014;-84
2024/02/20 09:18:57;;;;;;;9.13;2.00;;;;;;;7.14;100.00;99390.06;15316159;19;20029;-81
2024/02/20 09:24:23;;;;;;;8.25;1.90;;;;;;;7.29;100.00;99393.41;15314282;19;20010;-83
2024/02/20 09:29:48;;;;;;;8.95;2.00;;;;;;;7.41;100.00;99380.88;15317787;19;20021;-82
2024/02/20 09:35:22;;;;;;;8.02;1.90;;;;;;;7.64;100.00;99360.34;15310384;19;20018;-81
2024/02/20 09:40:49;;;;;;;9.68;2.17;;;;;;;7.79;100.00;99373.56;15306497;19;20018;-82
2024/02/20 09:46:16;;;;;;;10.63;2.13;;;;;;;7.77;100.00;99365.59;15311272;19;20089;-83
2024/02/20 09:51:46;;;;;;;7.65;1.92;;;;;;;7.75;100.00;99377.44;15314074;19;20035;-84
2024/02/20 09:57:12;;;;;;;7.50;2.20;;;;;;;7.78;100.00;99355.75;15315055;19;20025;-82
2024/02/20 10:02:40;;;;;;;10.02;2.13;;;;;;;7.76;100.00;99358.53;15314628;19;20014;-83
2024/02/20 10:08:09;;;;;;;10.18;2.10;;;;;;;7.67;100.00;99352.09;15308023;19;20879;-82
2024/02/20 10:13:45;;;;;;;11.23;2.92;;;;;;;7.64;100.00;99367.56;15311814;19;20014;-82
2024/02/20 10:19:11;;;;;;;10.45;2.40;;;;;;;7.64;100.00;99354.16;15304410;19;20014;-83
2024/02/20 10:24:39;;;;;;;11.05;2.40;;;;;;;7.68;100.00;99335.00;15310777;19;20074;-83
2024/02/20 10:30:03;;;;;;;14.20;3.13;;;;;;;7.70;100.00;99342.94;15333493;19;20010;-85
2024/02/20 10:35:35;;;;;;;10.88;2.35;;;;;;;7.69;100.00;99346.59;15332337;19;21062;-83
2024/02/20 10:41:03;;;;;;;12.10;2.78;;;;;;;7.67;100.00;99330.63;15306200;19;20018;-84
2024/02/20 10:46:29;;;;;;;8.57;1.98;;;;;;;7.65;100.00;99334.38;15313455;19;20014;-83
2024/02/20 10:51:57;;;;;;;13.07;2.95;;;;;;;7.66;100.00;99326.22;15314978;19;20035;-83
2024/02/20 10:57:26;;;;;;;14.00;2.58;;;;;;;7.74;100.00;99338.16;15312226;19;20505;-82
2024/02/20 11:02:53;;;;;;;10.20;2.67;;;;;;;7.78;100.00;99337.81;15322900;19;20073;-83
2024/02/20 11:08:18;;;;;;;12.45;2.42;;;;;;;7.81;100.00;99336.75;15338183;19;20014;-81
2024/02/20 11:13:47;;;;;;;8.82;2.45;;;;;;;7.88;100.00;99342.47;15335861;19;20026;-83
2024/02/20 11:19:12;;;;;;;9.48;2.60;;;;;;;7.80;100.00;99346.59;15291078;19;20027;-82
2024/02/20 11:24:38;;;;;;;11.27;2.38;;;;;;;7.71;100.00;99318.66;15290822;19;20038;-83
2024/02/20 11:30:16;;;;;;;8.48;2.13;;;;;;;7.71;100.00;99324.03;15289189;19;20029;-84
2024/02/20 11:35:49;;;;;;;10.07;2.40;;;;;;;7.68;100.00;99326.09;15286777;19;20461;-81
2024/02/20 11:41:14;;;;;;;10.32;2.42;;;;;;;7.75;100.00;99313.94;15296340;19;20022;-81
2024/02/20 11:46:44;;;;;;;9.70;2.38;;;;;;;7.78;100.00;99312.81;15293464;19;20035;-81
2024/02/20 11:52:11;;;;;;;11.70;2.55;;;;;;;7.76;100.00;99309.41;15290205;19;20037;-81
2024/02/20 11:57:42;;;;;;;9.55;2.05;;;;;;;7.75;100.00;99319.28;15297223;19;20018;-80
2024/02/20 12:03:10;;;;;;;9.93;2.30;;;;;;;7.74;100.00;99322.94;15294251;19;20031;-80
2024/02/20 12:08:44;;;;;;;12.68;2.47;;;;;;;7.76;100.00;99304.88;15285231;19;20537;-81
2024/02/20 12:14:18;;;;;;;10.90;2.47;;;;;;;7.85;100.00;99314.03;15295617;19;20055;-83
2024/02/20 12:19:47;;;;;;;11.23;2.58;;;;;;;7.84;100.00;99313.19;15297686;19;20011;-81
2024/02/20 12:25:17;;;;;;;11.15;2.70;;;;;;;7.85;100.00;99308.66;15294021;19;20011;-82
2024/02/20 12:30:41;;;;;;;12.82;2.88;;;;;;;7.85;100.00;99292.56;15289371;19;20015;-81
2024/02/20 12:36:10;;;;;;;9.70;2.60;;;;;;;7.90;100.00;99303.81;15303403;19;20011;-80
2024/02/20 12:41:34;;;;;;;11.82;2.50;;;;;;;7.97;100.00;99293.44;15338371;19;20025;-81
2024/02/20 12:47:00;;;;;;;11.40;2.65;;;;;;;7.99;100.00;99295.00;15321153;19;20476;-81
2024/02/20 12:52:29;;;;;;;11.98;2.70;;;;;;;8.07;100.00;99302.44;15322894;19;20426;-80
2024/02/20 12:57:54;;;;;;;10.63;2.30;;;;;;;8.21;100.00;99292.44;15317907;19;20074;-80
2024/02/20 13:03:20;;;;;;;10.68;2.40;;;;;;;8.31;100.00;99282.66;15321167;19;20025;-79
2024/02/20 13:08:49;;;;;;;12.95;2.70;;;;;;;8.40;100.00;99281.03;15315846;19;20015;-81
2024/02/20 13:14:15;;;;;;;13.00;2.60;;;;;;;8.35;100.00;99276.03;15318675;19;20018;-81
2024/02/20 13:19:41;;;;;;;10.52;2.38;;;;;;;8.31;100.00;99278.13;15311557;19;20013;-80
2024/02/20 13:25:09;;;;;;;10.32;2.50;;;;;;;8.27;100.00;99268.63;15340393;19;20041;-83
2024/02/20 13:30:34;;;;;;;7.95;2.22;;;;;;;8.24;100.00;99266.19;15052494;19;5002253;-80
2024/02/20 13:35:58;;;;;;;11.32;2.47;;;;;;;8.33;100.00;99260.06;15292475;19;20032;-83
2024/02/20 13:41:28;;;;;;;12.43;2.72;;;;;;;8.49;100.00;99256.13;15291341;19;20039;-81
2024/02/20 13:46:53;;;;;;;7.75;2.08;;;;;;;8.54;100.00;99261.13;15297624;19;20485;-80
2024/02/20 13:52:31;;;;;;;10.70;2.42;;;;;;;8.59;100.00;99259.75;15297463;19;20525;-81
2024/02/20 13:57:59;;;;;;;9.85;2.42;;;;;;;8.58;100.00;99244.63;15298125;19;20049;-81
2024/02/20 14:03:27;;;;;;;9.32;2.33;;;;;;;8.63;100.00;99239.72;15297635;19;20024;-82
2024/02/20 14:08:53;;;;;;;11.05;2.42;;;;;;;8.63;100.00;99247.78;15296819;19;20025;-82
2024/02/20 14:14:21;;;;;;;9.55;2.40;;;;;;;8.67;100.00;99239.44;15292948;19;20014;-80
2024/02/20 14:19:46;;;;;;;12.20;2.38;;;;;;;8.71;100.00;99241.75;15296718;19;20016;-80
2024/02/20 14:25:12;;;;;;;9.65;2.33;;;;;;;8.77;100.00;99218.88;15290739;19;20046;-79
2024/02/20 14:30:39;;;;;;;11.38;2.38;;;;;;;8.80;100.00;99205.19;15293520;19;20011;-80
2024/02/20 14:36:24;;;;;;;8.80;2.13;;;;;;;8.87;100.00;99216.28;15290844;19;20003;-80
2024/02/20 14:41:50;;;;;;;8.03;2.20;;;;;;;8.88;100.00;99224.19;15293820;19;20078;-81
2024/02/20 14:47:17;;;;;;;9.30;2.20;;;;;;;8.84;100.00;99214.72;15295044;19;20294;-81
2024/02/20 14:52:42;;;;;;;4.57;1.60;;;;;;;8.80;100.00;99221.31;15295652;19;20099;-80
2024/02/20 14:58:08;;;;;;;8.88;2.20;;;;;;;8.76;100.00;99236.84;15296248;19;20018;-81
2024/02/20 15:03:36;;;;;;;9.68;1.90;;;;;;;8.71;100.00;99222.09;15289298;19;20021;-81
2024/02/20 15:09:02;;;;;;;10.82;2.03;;;;;;;8.64;100.00;99217.22;15291299;19;20381;-81
2024/02/20 15:14:27;;;;;;;8.10;1.90;;;;;;;8.60;100.00;99233.75;15292264;19;20359;-81
2024/02/20 15:19:56;;;;;;;8.52;1.90;;;;;;;8.53;100.00;99221.81;15300479;19;20082;-84
2024/02/20 15:25:21;;;;;;;7.72;2.08;;;;;;;8.46;100.00;99218.75;15292261;19;20020;-80
2024/02/20 15:30:46;;;;;;;9.70;2.22;;;;;;;8.44;100.00;99215.34;15296797;19;20082;-81
2024/02/20 15:36:20;;;;;;;5.78;2.03;;;;;;;8.42;100.00;99206.56;15039560;19;5001660;-81
2024/02/20 15:41:45;;;;;;;5.90;1.52;;;;;;;8.42;100.00;99206.56;15266730;19;20014;-80
2024/02/20 15:47:10;;;;;;;9.23;2.05;;;;;;;8.42;100.00;99210.13;15340533;19;20014;-80
2024/02/20 15:52:40;;;;;;;7.30;1.95;;;;;;;8.40;100.00;99206.69;15345766;19;20011;-80
2024/02/20 15:58:08;;;;;;;7.85;2.05;;;;;;;8.42;100.00;99201.19;15295279;19;20102;-82
2024/02/20 16:03:34;;;;;;;7.25;2.00;;;;;;;8.39;100.00;99202.31;15286655;19;20022;-81
2024/02/20 16:09:03;;;;;;;8.77;2.20;;;;;;;8.33;100.00;99200.97;15292928;19;20010;-84
2024/02/20 16:14:28;;;;;;;9.15;2.03;;;;;;;8.30;100.00;99197.72;15298503;19;20038;-84
2024/02/20 16:19:53;;;;;;;9.82;2.42;;;;;;;8.21;100.00;99202.00;15306583;19;20019;-81
2024/02/20 16:25:21;;;;;;;7.70;2.05;;;;;;;8.18;100.00;99207.63;15311041;19;20473;-82
2024/02/20 16:30:45;;;;;;;10.27;2.40;;;;;;;8.15;100.00;99207.88;15362380;19;20011;-86
2024/02/20 16:36:18;;;;;;;8.88;2.00;;;;;;;8.15;100.00;99221.31;15365832;19;20017;-85
2024/02/20 16:41:46;;;;;;;6.72;2.15;;;;;;;8.14;100.00;99219.59;15308139;19;20018;-82
2024/02/20 16:47:12;;;;;;;9.38;2.28;;;;;;;8.08;100.00;99228.13;15308472;19;20011;-85
2024/02/20 16:52:38;;;;;;;10.43;2.58;;;;;;;8.07;100.00;99234.47;15306863;19;20022;-84
2024/02/20 16:58:07;;;;;;;8.60;2.38;;;;;;;8.06;100.00;99235.47;15337660;19;20093;-81
2024/02/20 17:03:34;;;;;;;10.00;2.60;;;;;;;8.06;100.00;99228.28;15322702;19;20520;-81
2024/02/20 17:08:59;;;;;;;7.75;2.28;;;;;;;8.02;100.00;99230.38;15311903;19;20498;-82
2024/02/20 17:14:27;;;;;;;8.55;2.35;;;;;;;8.04;100.00;99232.06;15324917;19;20011;-83
2024/02/20 17:19:53;;;;;;;7.60;2.40;;;;;;;7.97;100.00;99229.03;15321441;19;20014;-82
2024/02/20 17:25:20;;;;;;;9.60;2.75;;;;;;;7.88;100.00;99227.94;15312200;19;20027;-83
2024/02/20 17:30:48;;;;;;;7.60;2.30;;;;;;;7.88;100.00;99243.19;15305028;19;20022;-80
2024/02/20 17:36:19;;;;;;;8.63;2.30;;;;;;;7.86;100.00;99236.13;15312247;19;20025;-80
2024/02/20 17:41:43;;;;;;;8.07;2.30;;;;;;;7.81;100.00;99238.31;15304645;19;20018;-81
2024/02/20 17:47:13;;;;;;;9.88;2.38;;;;;;;7.76;100.00;99239.66;15300017;19;20018;-80
2024/02/20 17:52:38;;;;;;;9.98;2.45;;;;;;;7.75;100.00;99235.28;15304624;19;20010;-79
2024/02/20 17:58:03;;;;;;;8.48;2.20;;;;;;;7.75;100.00;99237.94;15317750;19;20019;-81
2024/02/20 18:03:33;;;;;;;7.30;2.40;;;;;;;7.76;100.00;99247.72;15302040;19;20473;-84
2024/02/20 18:08:58;;;;;;;10.32;2.50;;;;;;;7.79;100.00;99244.78;15303394;19;20025;-80
2024/02/20 18:14:23;;;;;;;9.60;2.42;;;;;;;7.78;100.00;99248.44;15303260;19;20022;-80
2024/02/20 18:19:51;;;;;;;12.35;2.63;;;;;;;7.75;100.00;99246.00;15295559;19;20016;-80
2024/02/20 18:25:16;;;;;;;11.98;2.30;;;;;;;7.69;100.00;99229.44;15295364;19;20078;-81
2024/02/20 18:30:41;;;;;;;9.27;2.22;;;;;;;7.64;100.00;99245.03;15298511;19;20018;-80
2024/02/20 18:36:18;;;;;;;10.10;2.20;;;;;;;7.60;100.00;99238.19;15297667;19;20424;-84
2024/02/20 18:41:48;;;;;;;7.50;2.10;;;;;;;7.57;100.00;99233.09;15294655;19;20019;-82
2024/02/20 18:47:13;;;;;;;6.25;2.08;;;;;;;7.55;100.00;99233.19;15299805;19;20086;-80
2024/02/20 18:52:41;;;;;;;9.50;2.28;;;;;;;7.50;100.00;99239.91;15296021;19;20018;-80
2024/02/20 18:58:06;;;;;;;7.25;2.20;;;;;;;7.49;100.00;99243.56;15296522;19;20014;-79
2024/02/20 19:03:31;;;;;;;7.50;2.17;;;;;;;7.47;100.00;99235.66;15298520;19;20010;-77
2024/02/20 19:08:58;;;;;;;7.95;2.42;;;;;;;7.46;100.00;99233.09;15298338;19;20014;-78
2024/02/20 19:14:24;;;;;;;8.82;2.45;;;;;;;7.45;100.00;99234.06;15294113;19;20002;-78
2024/02/20 19:19:48;;;;;;;10.00;2.30;;;;;;;7.44;100.00;99229.69;15295188;19;20018;-80
2024/02/20 19:25:25;;;;;;;6.63;2.35;;;;;;;7.42;100.00;99229.78;15296650;19;20027;-82
2024/02/20 19:30:52;;;;;;;6.68;1.98;;;;;;;7.39;100.00;99230.03;15309611;19;20045;-80
2024/02/20 19:36:16;;;;;;;6.28;2.00;;;;;;;7.39;100.00;99236.25;15345663;19;20025;-80
2024/02/20 19:41:44;;;;;;;7.32;2.33;;;;;;;7.38;100.00;99226.50;15292402;19;20018;-83
2024/02/20 19:47:09;;;;;;;8.85;2.50;;;;;;;7.36;100.00;99231.13;15294671;19;20485;-81
2024/02/20 19:52:33;;;;;;;7.22;2.30;;;;;;;7.37;100.00;99229.31;15293399;19;20022;-84
2024/02/20 19:58:03;;;;;;;8.63;2.35;;;;;;;7.36;100.00;99216.88;15288635;19;20015;-80
2024/02/20 20:03:29;;;;;;;8.80;2.28;;;;;;;7.40;100.00;99218.34;15300046;19;20019;-79
2024/02/20 20:08:55;;;;;;;7.63;2.17;;;;;;;7.37;100.00;99219.41;15288242;19;20102;-81
2024/02/20 20:14:23;;;;;;;6.47;2.10;;;;;;;7.40;100.00;99213.81;15290044;19;20014;-79
2024/02/20 20:19:48;;;;;;;7.53;2.10;;;;;;;7.42;100.00;99199.44;15288427;19;20024;-78
2024/02/20 20:25:13;;;;;;;7.78;2.10;;;;;;;7.41;100.00;99195.91;15288524;19;20011;-79
2024/02/20 20:30:40;;;;;;;10.63;2.28;;;;;;;7.38;100.00;99204.22;15334892;19;20359;-82
2024/02/20 20:36:06;;;;;;;7.80;2.20;;;;;;;7.37;100.00;99192.63;15338575;19;20015;-81
2024/02/20 20:41:31;;;;;;;7.70;2.15;;;;;;;7.40;100.00;99181.66;15328324;19;20018;-83
2024/02/20 20:46:58;;;;;;;7.57;2.20;;;;;;;7.56;100.00;99181.28;15285314;19;20015;-74
2024/02/20 20:52:25;;;;;;;6.88;2.00;;;;;;;7.60;100.00;99181.03;15284675;19;20074;-74
2024/02/20 20:57:50;;;;;;;9.00;2.10;;;;;;;7.65;100.00;99173.47;15280213;19;20014;-75
2024/02/20 21:03:18;;;;;;;6.45;2.10;;;;;;;7.66;100.00;99178.72;15276367;19;20015;-74
2024/02/20 21:08:42;;;;;;;8.30;2.22;;;;;;;7.68;100.00;99170.53;15292314;19;20074;-75
2024/02/20 21:14:07;;;;;;;7.68;2.20;;;;;;;7.71;100.00;99171.13;15288865;19;20015;-76
2024/02/20 21:19:34;;;;;;;9.57;2.20;;;;;;;7.72;100.00;99172.00;15291226;19;20012;-74
2024/02/20 21:24:59;;;;;;;10.85;2.60;;;;;;;7.75;100.00;99171.75;15293447;19;20026;-73
2024/02/20 21:30:45;;;;;;;8.50;2.15;;;;;;;7.74;100.00;99153.09;15292982;19;20014;-74
2024/02/20 21:36:18;;;;;;;8.35;1.92;;;;;;;7.70;100.00;99155.19;15278647;19;20022;-74
2024/02/20 21:41:42;;;;;;;8.60;2.20;;;;;;;7.68;100.00;99135.66;15280348;19;20667;-75
2024/02/20 21:47:07;;;;;;;7.70;2.05;;;;;;;7.75;100.00;99139.56;15286972;19;20022;-74
2024/02/20 21:52:34;;;;;;;9.38;2.20;;;;;;;7.70;100.00;99141.75;15289371;19;20014;-75
2024/02/20 21:57:59;;;;;;;9.82;2.58;;;;;;;7.63;100.00;99128.00;15280696;19;20010;-75
2024/02/20 22:03:23;;;;;;;7.68;2.33;;;;;;;7.60;100.00;99128.25;15285688;19;20488;-74
2024/02/20 22:08:51;;;;;;;7.75;2.10;;;;;;;7.63;100.00;99119.13;15281832;19;20533;-71
2024/02/20 22:14:15;;;;;;;7.28;2.25;;;;;;;7.60;100.00;99112.16;15281586;19;20102;-73
2024/02/20 22:19:40;;;;;;;9.50;2.45;;;;;;;7.51;100.00;99107.53;15288861;19;20020;-74
2024/02/20 22:25:08;;;;;;;8.20;2.22;;;;;;;7.44;100.00;99098.31;15290930;19;20006;-75
2024/02/20 22:30:33;;;;;;;9.90;2.40;;;;;;;7.40;100.00;99101.22;15287140;19;20013;-74
2024/02/20 22:35:57;;;;;;;8.43;2.20;;;;;;;7.34;100.00;99096.38;15289224;19;20767;-75
2024/02/20 22:41:27;;;;;;;8.93;2.00;;;;;;;7.29;100.00;99089.69;15285139;19;20010;-74
2024/02/20 22:46:52;;;;;;;7.65;2.08;;;;;;;7.24;100.00;99092.72;15281202;19;20027;-74
2024/02/20 22:52:17;;;;;;;6.82;2.10;;;;;;;7.21;100.00;99084.94;15284246;19;20075;-74
2024/02/20 22:57:44;;;;;;;8.35;2.30;;;;;;;7.19;100.00;99082.38;15278774;19;20034;-74
2024/02/20 23:03:09;;;;;;;9.68;2.40;;;;;;;7.14;100.00;99083.72;15287589;19;20010;-72
2024/02/20 23:08:34;;;;;;;7.47;2.20;;;;;;;7.14;100.00;99073.84;15283288;19;20014;-74
2024/02/20 23:14:02;;;;;;;7.75;2.25;;;;;;;7.16;100.00;99076.41;15282966;19;20029;-75
2024/02/20 23:19:26;;;;;;;7.80;2.20;;;;;;;7.17;100.00;99072.75;15281539;19;20015;-74
2024/02/20 23:24:51;;;;;;;12.35;2.63;;;;;;;7.16;100.00;99071.91;15278815;19;20321;-75
2024/02/20 23:30:18;;;;;;;8.35;2.45;;;;;;;7.18;100.00;99053.84;15282634;19;20101;-75
2024/02/20 23:35:50;;;;;;;9.20;2.58;;;;;;;7.19;100.00;99052.03;15286910;19;20094;-75
2024/02/20 23:41:14;;;;;;;7.77;2.50;;;;;;;7.22;100.00;99044.59;15279859;19;20424;-74
2024/02/20 23:46:42;;;;;;;10.70;2.17;;;;;;;7.16;100.00;99053.16;15278831;19;20271;-75
2024/02/20 23:52:07;;;;;;;8.98;2.28;;;;;;;7.20;100.00;99057.28;15284047;19;20536;-74
2024/02/20 23:57:32;;;;;;;6.55;2.10;;;;;;;7.21;100.00;99052.78;15278141;19;20011;-74
